Qian Gorlos, China
Current Conditions -  °F | °C
As of 9:00 PM on Wednesday 26 Nov 2014 (Local Time) from ZYHB Reporting Station
Clear Clear  
Wind Chill: 28°   Ceiling: Unl
Heat Index: 37°   Visibility: 6mi
Dew Point: 10°   Wind: 16mph
Humidity: 33%   Direction: 280°W
Pressure: 29.91"   Gusts: 27mph
Location:  45.12°N, 124.83°E
Report Text: ZYHB 261300Z 28007G12MPS CAVOK 03/M12 Q1013 NOSIG
Loading
Personal Weather Stations






























Interactive Weather Map New forecast layout! Learn more

10-Day Weather Forecast

Advertisements
Track Severe Weather on mobile